Axis, Alabama
Current Conditions -  °F | °C
As of 7:53 AM on Thursday 27 Nov 2014 (Local Time) from KBFM Reporting Station
Clear Clear  
Wind Chill: 51°   Ceiling: Unl
Heat Index: 51°   Visibility: 10mi
Dew Point: 36°   Wind: 12mph
Humidity: 56%   Direction: 330°NNW
Pressure: 30.39"   Gusts: NA
Location:  30.93°N, 88.03°W
Report Text: KBFM 271353Z 33010KT 10SM CLR 11/02 A3039 RMK AO2 SLP290 T01060022
Loading
Personal Weather Stations






























Interactive Weather Map New forecast layout! Learn more

10-Day Weather Forecast

Advertisements
Track Severe Weather on mobile